createdAt,value
2018-06-24T00:01:13.511Z,96.60
2018-06-24T00:03:43.012Z,96.70
2018-06-24T00:06:12.291Z,96.90
2018-06-24T00:08:41.749Z,97.00
2018-06-24T00:11:11.543Z,97.20
2018-06-24T00:13:40.867Z,97.20
2018-06-24T00:16:10.114Z,97.20
2018-06-24T00:18:39.401Z,97.10
2018-06-24T00:21:08.719Z,97.20
2018-06-24T00:26:06.769Z,97.50
2018-06-24T00:28:36.094Z,97.40
2018-06-24T00:31:05.339Z,97.60
2018-06-24T00:33:34.621Z,97.50
2018-06-24T00:36:03.903Z,97.70
2018-06-24T00:38:33.964Z,97.70
2018-06-24T00:41:03.216Z,97.80
2018-06-24T00:43:32.490Z,97.40
2018-06-24T00:46:02.325Z,97.30
2018-06-24T00:48:31.631Z,97.30
2018-06-24T00:51:00.887Z,97.40
2018-06-24T00:53:30.188Z,97.20
2018-06-24T00:55:59.501Z,97.60
2018-06-24T00:58:28.779Z,97.50
2018-06-24T01:00:58.615Z,97.60
2018-06-24T01:03:27.976Z,97.50
2018-06-24T01:05:57.232Z,97.60
2018-06-24T01:08:26.660Z,97.50
2018-06-24T01:10:55.955Z,97.20
2018-06-24T01:13:25.320Z,97.00
2018-06-24T01:15:54.949Z,97.30
2018-06-24T01:18:24.219Z,97.50
2018-06-24T01:20:54.283Z,97.70
2018-06-24T01:23:23.563Z,97.80
2018-06-24T01:25:52.868Z,97.80
2018-06-24T01:28:22.129Z,97.90
2018-06-24T01:30:51.480Z,97.80
2018-06-24T01:33:20.783Z,97.90
2018-06-24T01:35:50.022Z,98.00
2018-06-24T01:38:19.989Z,98.50
2018-06-24T01:40:49.315Z,98.50
2018-06-24T01:43:18.670Z,98.40
2018-06-24T01:45:48.028Z,98.30
2018-06-24T01:48:17.288Z,98.80
2018-06-24T01:50:46.522Z,98.90
2018-06-24T01:53:15.803Z,98.90
2018-06-24T01:58:14.409Z,98.80
2018-06-24T02:00:43.760Z,98.50
2018-06-24T02:03:12.987Z,98.70
2018-06-24T02:05:42.593Z,99.20
2018-06-24T02:08:12.539Z,99.10
2018-06-24T02:10:41.820Z,99.60
2018-06-24T02:13:11.094Z,99.90
2018-06-24T02:15:40.332Z,99.90
2018-06-24T02:18:09.581Z,99.90
2018-06-24T02:20:38.854Z,99.90
2018-06-24T02:23:08.140Z,99.90
2018-06-24T02:25:37.968Z,99.90
2018-06-24T02:28:07.301Z,99.90
2018-06-24T02:30:36.649Z,99.90
2018-06-24T02:33:05.929Z,99.90
2018-06-24T02:35:35.350Z,99.80
2018-06-24T02:38:04.652Z,99.90
2018-06-24T02:40:33.951Z,99.40
2018-06-24T02:43:03.217Z,99.30
2018-06-24T02:45:32.503Z,99.50
2018-06-24T02:48:01.753Z,99.60
2018-06-24T02:50:31.060Z,99.50
2018-06-24T02:53:00.358Z,99.40
2018-06-24T02:55:29.570Z,99.40
2018-06-24T02:57:58.800Z,99.50
2018-06-24T03:00:28.077Z,99.30
2018-06-24T03:02:58.461Z,99.10
2018-06-24T03:05:27.706Z,99.10
2018-06-24T03:07:56.955Z,99.00
2018-06-24T03:10:26.261Z,98.70
2018-06-24T03:12:55.516Z,98.80
2018-06-24T03:15:25.491Z,98.70
2018-06-24T03:17:54.825Z,98.40
2018-06-24T03:20:26.565Z,97.70
2018-06-24T03:22:55.811Z,98.00
2018-06-24T03:25:25.075Z,98.20
2018-06-24T03:27:54.357Z,98.20
2018-06-24T03:30:23.687Z,98.40
2018-06-24T03:35:21.791Z,98.70
2018-06-24T03:37:51.120Z,98.10
2018-06-24T03:40:20.377Z,97.90
2018-06-24T03:42:49.699Z,98.10
2018-06-24T03:45:18.977Z,98.10
2018-06-24T03:47:48.260Z,97.90
2018-06-24T03:50:17.525Z,98.00
2018-06-24T03:52:46.800Z,98.10
2018-06-24T03:55:16.062Z,97.50
2018-06-24T03:57:45.415Z,97.90
2018-06-24T04:00:14.690Z,98.10
2018-06-24T04:02:43.976Z,98.20
2018-06-24T04:05:13.219Z,98.30
2018-06-24T04:07:42.455Z,98.30
2018-06-24T04:10:11.674Z,98.10
2018-06-24T04:12:41.259Z,97.90
2018-06-24T04:15:11.429Z,97.90
2018-06-24T04:17:40.701Z,98.00
2018-06-24T04:20:10.792Z,97.90
2018-06-24T04:22:40.056Z,97.70
2018-06-24T04:25:09.399Z,97.90
2018-06-24T04:27:39.162Z,98.00
2018-06-24T04:30:09.820Z,98.10
2018-06-24T04:32:39.564Z,98.00
2018-06-24T04:35:08.816Z,98.10
2018-06-24T04:40:07.577Z,96.70
2018-06-24T04:42:36.980Z,97.10
2018-06-24T04:45:06.269Z,96.90
2018-06-24T04:47:35.539Z,96.80
2018-06-24T04:50:04.996Z,96.80
2018-06-24T04:52:34.264Z,96.20
2018-06-24T04:55:03.533Z,95.50
2018-06-24T04:57:32.760Z,95.60
2018-06-24T05:00:02.028Z,95.60
2018-06-24T05:02:31.323Z,95.50
2018-06-24T05:05:00.646Z,95.60
2018-06-24T05:07:29.955Z,95.40
2018-06-24T05:09:59.321Z,95.50
2018-06-24T05:12:28.638Z,95.50
2018-06-24T05:14:57.858Z,95.60
2018-06-24T05:17:27.180Z,95.20
2018-06-24T05:19:56.471Z,95.20
2018-06-24T05:22:25.761Z,95.10
2018-06-24T05:24:54.979Z,94.70
2018-06-24T05:27:24.967Z,94.90
2018-06-24T05:29:54.252Z,94.50
2018-06-24T05:32:23.499Z,94.20
2018-06-24T05:34:52.764Z,93.90
2018-06-24T05:37:22.032Z,94.20
2018-06-24T05:39:51.381Z,94.00
2018-06-24T05:42:20.692Z,94.00
2018-06-24T05:44:50.715Z,94.30
2018-06-24T05:47:19.931Z,94.50
2018-06-24T05:49:49.223Z,94.30
2018-06-24T05:52:18.508Z,93.90
2018-06-24T05:54:48.395Z,93.70
2018-06-24T05:57:17.755Z,93.70
2018-06-24T05:59:47.026Z,93.30
2018-06-24T06:02:16.283Z,93.60
2018-06-24T06:04:45.640Z,93.00
2018-06-24T06:07:14.944Z,93.30
2018-06-24T06:12:13.676Z,92.60
2018-06-24T06:14:42.998Z,92.40
2018-06-24T06:17:12.316Z,92.70
2018-06-24T06:19:41.927Z,92.30
2018-06-24T06:22:11.240Z,92.00
2018-06-24T06:24:40.524Z,92.10
2018-06-24T06:27:09.834Z,91.80
2018-06-24T06:29:39.115Z,91.80
2018-06-24T06:32:08.441Z,91.60
2018-06-24T06:34:38.590Z,91.60
2018-06-24T06:37:08.036Z,91.70
2018-06-24T06:39:37.358Z,91.80
2018-06-24T06:42:07.773Z,91.70
2018-06-24T06:44:37.199Z,91.50
2018-06-24T06:47:06.679Z,91.80
2018-06-24T06:49:36.003Z,91.90
2018-06-24T06:52:05.301Z,91.30
2018-06-24T06:54:35.443Z,91.20
2018-06-24T06:57:04.966Z,91.20
2018-06-24T06:59:34.313Z,91.00
2018-06-24T07:02:04.788Z,90.80
2018-06-24T07:04:34.018Z,90.80
2018-06-24T07:07:03.542Z,90.50
2018-06-24T07:09:32.819Z,90.50
2018-06-24T07:12:02.689Z,91.30
2018-06-24T07:14:32.163Z,91.60
2018-06-24T07:17:01.510Z,91.60
2018-06-24T07:19:30.863Z,91.70
2018-06-24T07:22:00.193Z,91.00
2018-06-24T07:24:29.451Z,91.60
2018-06-24T07:26:58.764Z,91.30
2018-06-24T07:29:33.251Z,90.80
2018-06-24T07:32:02.509Z,90.60
2018-06-24T07:34:31.766Z,90.50
2018-06-24T07:37:01.036Z,90.70
2018-06-24T07:39:31.251Z,90.10
2018-06-24T07:42:00.581Z,90.30
2018-06-24T07:44:29.823Z,90.60
2018-06-24T07:46:59.036Z,90.60
2018-06-24T07:49:28.298Z,90.40
2018-06-24T07:51:58.248Z,90.20
2018-06-24T07:54:27.588Z,90.20
2018-06-24T07:56:56.807Z,90.40
2018-06-24T07:59:26.118Z,90.40
2018-06-24T08:01:55.384Z,91.00
2018-06-24T08:04:24.677Z,90.90
2018-06-24T08:06:53.929Z,90.20
2018-06-24T08:09:23.268Z,90.10
2018-06-24T08:11:53.208Z,89.90
2018-06-24T08:14:22.585Z,89.80
2018-06-24T08:16:52.583Z,88.80
2018-06-24T08:19:21.920Z,88.20
2018-06-24T08:21:51.206Z,87.40
2018-06-24T08:24:20.506Z,85.70
2018-06-24T08:26:49.825Z,83.50
2018-06-24T08:29:19.259Z,82.40
2018-06-24T08:31:48.605Z,81.50
2018-06-24T08:34:17.864Z,81.50
2018-06-24T08:36:47.143Z,79.50
2018-06-24T08:39:16.464Z,78.80
2018-06-24T08:41:45.719Z,78.20
2018-06-24T08:44:15.307Z,76.20
2018-06-24T08:46:44.560Z,74.50
2018-06-24T08:49:13.875Z,76.20
2018-06-24T08:51:43.170Z,77.50
2018-06-24T08:54:12.393Z,79.60
2018-06-24T08:56:41.706Z,79.20
2018-06-24T08:59:10.963Z,79.50
2018-06-24T09:01:40.327Z,78.20
2018-06-24T09:04:09.605Z,78.80
2018-06-24T09:06:38.912Z,78.00
2018-06-24T09:09:09.979Z,77.60
2018-06-24T09:11:39.275Z,77.80
2018-06-24T09:14:08.573Z,78.60
2018-06-24T09:16:37.904Z,76.70
2018-06-24T09:19:07.231Z,77.10
2018-06-24T09:21:36.507Z,77.10
2018-06-24T09:24:06.529Z,77.30
2018-06-24T09:26:35.799Z,78.00
2018-06-24T09:29:05.140Z,77.20
2018-06-24T09:31:34.560Z,76.80
2018-06-24T09:34:05.280Z,76.70
2018-06-24T09:36:34.572Z,72.20
2018-06-24T09:39:06.410Z,70.30
2018-06-24T09:41:35.733Z,70.00
2018-06-24T09:46:33.894Z,70.20
2018-06-24T09:49:03.133Z,70.30
2018-06-24T09:51:32.647Z,67.90
2018-06-24T09:56:30.732Z,64.70
2018-06-24T09:58:59.976Z,63.10
2018-06-24T10:01:29.343Z,63.20
2018-06-24T10:03:58.681Z,63.80
2018-06-24T10:06:28.437Z,60.40
2018-06-24T10:08:57.688Z,62.90
2018-06-24T10:11:27.029Z,63.20
2018-06-24T10:13:56.289Z,62.00
2018-06-24T10:16:25.627Z,63.40
2018-06-24T10:18:55.462Z,64.00
2018-06-24T10:21:25.391Z,62.10
2018-06-24T10:23:54.647Z,62.00
2018-06-24T10:26:23.978Z,60.10
2018-06-24T10:28:53.347Z,61.40
2018-06-24T10:33:51.525Z,60.50
2018-06-24T10:36:23.255Z,60.20
2018-06-24T10:38:52.648Z,60.70
2018-06-24T10:41:22.080Z,62.80
2018-06-24T10:43:51.345Z,63.60
2018-06-24T10:46:20.626Z,64.00
2018-06-24T10:48:49.883Z,59.90
2018-06-24T10:51:19.194Z,60.70
2018-06-24T10:53:49.019Z,63.40
2018-06-24T10:56:18.363Z,63.70
2018-06-24T11:01:17.759Z,64.10
2018-06-24T11:03:47.135Z,65.30
2018-06-24T11:06:16.388Z,63.60
2018-06-24T11:08:46.363Z,62.20
2018-06-24T11:11:15.759Z,63.50
2018-06-24T11:13:45.108Z,64.40
2018-06-24T11:16:14.501Z,65.20
2018-06-24T11:18:43.769Z,65.30
2018-06-24T11:21:14.343Z,64.20
2018-06-24T11:23:42.323Z,66.80
2018-06-24T11:26:11.591Z,64.90
2018-06-24T11:28:40.855Z,64.90
2018-06-24T11:31:10.149Z,64.90
2018-06-24T11:33:39.460Z,65.60
2018-06-24T11:38:37.912Z,66.20
2018-06-24T11:41:07.331Z,67.30
2018-06-24T11:43:36.927Z,67.90
2018-06-24T11:46:06.444Z,68.80
2018-06-24T11:48:35.728Z,67.50
2018-06-24T11:51:05.048Z,68.20
2018-06-24T11:53:34.343Z,70.30
2018-06-24T11:56:03.679Z,72.00
2018-06-24T11:58:33.045Z,71.70
2018-06-24T12:01:02.752Z,71.80
2018-06-24T12:03:32.068Z,73.70
2018-06-24T12:06:01.377Z,73.30
2018-06-24T12:08:30.623Z,71.50
2018-06-24T12:10:59.864Z,72.70
2018-06-24T12:13:29.159Z,71.60
2018-06-24T12:15:58.444Z,71.90
2018-06-24T12:18:27.719Z,72.80
2018-06-24T12:20:57.039Z,74.60
2018-06-24T12:23:26.327Z,74.20
2018-06-24T12:25:55.740Z,74.60
2018-06-24T12:28:25.079Z,76.20
2018-06-24T12:30:54.381Z,75.30
2018-06-24T12:33:23.797Z,76.70
2018-06-24T12:35:53.027Z,75.70
2018-06-24T12:38:22.312Z,76.60
2018-06-24T12:40:51.555Z,76.80
2018-06-24T12:43:21.925Z,76.50
2018-06-24T12:45:51.161Z,76.80
2018-06-24T12:48:20.466Z,77.70
2018-06-24T12:50:49.720Z,78.60
2018-06-24T12:53:18.959Z,78.00
2018-06-24T12:55:48.225Z,79.30
2018-06-24T12:58:17.551Z,79.20
2018-06-24T13:00:47.421Z,79.00
2018-06-24T13:03:16.520Z,80.20
2018-06-24T13:05:47.024Z,80.30
2018-06-24T13:08:16.412Z,81.10
2018-06-24T13:10:45.672Z,81.20
2018-06-24T13:13:14.997Z,82.70
2018-06-24T13:15:44.227Z,82.60
2018-06-24T13:18:13.487Z,81.30
2018-06-24T13:20:43.447Z,80.80
2018-06-24T13:23:12.824Z,82.50
2018-06-24T13:25:42.088Z,82.70
2018-06-24T13:28:11.354Z,82.90
2018-06-24T13:30:40.636Z,82.20
2018-06-24T13:33:11.020Z,83.10
2018-06-24T13:35:40.299Z,83.70
2018-06-24T13:38:09.609Z,82.60
2018-06-24T13:40:38.973Z,83.60
2018-06-24T13:43:08.266Z,83.30
2018-06-24T13:45:37.903Z,84.60
2018-06-24T13:48:07.603Z,82.60
2018-06-24T13:50:36.933Z,84.70
2018-06-24T13:53:06.252Z,82.80
2018-06-24T13:55:36.255Z,83.90
2018-06-24T13:58:06.077Z,83.30
2018-06-24T14:00:35.274Z,83.00
2018-06-24T14:03:04.557Z,83.60
2018-06-24T14:05:33.843Z,84.60
2018-06-24T14:08:03.132Z,84.60
2018-06-24T14:10:32.370Z,84.70
2018-06-24T14:13:01.686Z,85.00
2018-06-24T14:15:30.903Z,86.40
2018-06-24T14:18:00.240Z,86.90
2018-06-24T14:20:29.527Z,87.40
2018-06-24T14:22:58.892Z,87.10
2018-06-24T14:25:28.133Z,86.70
2018-06-24T14:27:57.457Z,87.90
2018-06-24T14:30:26.732Z,88.30
2018-06-24T14:32:56.212Z,88.50
2018-06-24T14:35:25.511Z,89.30
2018-06-24T14:37:54.787Z,89.90
2018-06-24T14:40:24.831Z,90.00
2018-06-24T14:42:54.262Z,89.60
2018-06-24T14:45:23.549Z,90.00
2018-06-24T14:47:52.893Z,90.00
2018-06-24T14:50:22.208Z,90.10
2018-06-24T14:52:51.539Z,90.20
2018-06-24T14:55:20.801Z,90.20
2018-06-24T14:57:50.240Z,90.10
2018-06-24T15:00:19.525Z,90.00
2018-06-24T15:02:48.839Z,90.30
2018-06-24T15:05:19.846Z,90.40
2018-06-24T15:07:49.116Z,90.20
2018-06-24T15:10:18.458Z,90.40
2018-06-24T15:12:47.798Z,90.50
2018-06-24T15:15:17.106Z,90.60
2018-06-24T15:17:46.446Z,91.00
2018-06-24T15:20:15.725Z,91.10
2018-06-24T15:22:44.996Z,91.10
2018-06-24T15:25:14.358Z,91.20
2018-06-24T15:27:43.681Z,91.70
2018-06-24T15:30:13.751Z,92.40
2018-06-24T15:32:43.263Z,92.70
2018-06-24T15:35:12.771Z,93.00
2018-06-24T15:37:42.279Z,92.80
2018-06-24T15:40:11.611Z,92.80
2018-06-24T15:42:40.913Z,93.10
2018-06-24T15:45:10.210Z,93.40
2018-06-24T15:47:39.667Z,93.60
2018-06-24T15:50:09.025Z,94.00
2018-06-24T15:52:38.433Z,93.70
2018-06-24T15:55:08.012Z,94.00
2018-06-24T15:57:37.340Z,94.40
2018-06-24T16:00:06.699Z,94.60
2018-06-24T16:02:36.088Z,94.60
2018-06-24T16:05:05.757Z,94.60
2018-06-24T16:07:35.048Z,94.60
2018-06-24T16:10:04.503Z,94.80
2018-06-24T16:12:33.819Z,94.70
2018-06-24T16:15:03.170Z,94.50
2018-06-24T16:17:32.555Z,94.70
2018-06-24T16:20:02.107Z,94.80
2018-06-24T16:22:31.770Z,94.40
2018-06-24T16:25:01.171Z,95.20
2018-06-24T16:29:59.468Z,96.50
2018-06-24T16:32:28.968Z,96.00
2018-06-24T16:34:58.307Z,96.50
2018-06-24T16:37:27.681Z,96.20
2018-06-24T16:39:56.957Z,96.00
2018-06-24T16:42:26.523Z,96.10
2018-06-24T16:44:56.016Z,96.30
2018-06-24T16:47:25.342Z,96.00
2018-06-24T16:49:59.510Z,96.20
2018-06-24T16:52:28.894Z,96.20
2018-06-24T16:54:58.260Z,96.20
2018-06-24T16:57:27.717Z,96.40
2018-06-24T16:59:57.097Z,96.20
2018-06-24T17:02:26.364Z,95.70
2018-06-24T17:04:56.491Z,95.70
2018-06-24T17:07:25.787Z,95.70
2018-06-24T17:09:55.257Z,95.70
2018-06-24T17:12:24.558Z,95.90
2018-06-24T17:14:53.824Z,95.80
2018-06-24T17:17:23.160Z,95.80
2018-06-24T17:19:52.513Z,96.10
2018-06-24T17:22:22.001Z,95.80
2018-06-24T17:24:51.670Z,96.00
2018-06-24T17:27:21.105Z,96.50
2018-06-24T17:29:50.403Z,96.70
2018-06-24T17:32:19.838Z,97.20
2018-06-24T17:34:49.132Z,97.00
2018-06-24T17:37:18.447Z,97.00
2018-06-24T17:39:47.763Z,96.60
2018-06-24T17:42:17.024Z,96.80
2018-06-24T17:44:46.409Z,96.60
2018-06-24T17:47:15.751Z,96.60
2018-06-24T17:49:45.092Z,96.60
2018-06-24T17:52:15.965Z,96.60
2018-06-24T17:54:45.664Z,96.40
2018-06-24T17:57:15.107Z,96.50
2018-06-24T17:59:44.454Z,96.60
2018-06-24T18:02:13.796Z,96.50
2018-06-24T18:04:43.142Z,96.60
2018-06-24T18:07:12.770Z,96.70
2018-06-24T18:09:42.093Z,96.80
2018-06-24T18:12:11.560Z,97.00
2018-06-24T18:14:40.960Z,96.60
2018-06-24T18:17:11.080Z,96.90
2018-06-24T18:19:40.445Z,96.90
2018-06-24T18:22:09.839Z,97.00
2018-06-24T18:24:39.216Z,97.20
2018-06-24T18:27:08.627Z,97.30
2018-06-24T18:29:38.317Z,97.50
2018-06-24T18:32:07.666Z,97.30
2018-06-24T18:34:37.019Z,97.20
2018-06-24T18:37:06.373Z,97.40
2018-06-24T18:39:36.546Z,97.40
2018-06-24T18:42:05.998Z,97.70
2018-06-24T18:44:35.274Z,97.20
2018-06-24T18:47:04.641Z,97.50
2018-06-24T18:49:34.031Z,97.30
2018-06-24T18:52:03.436Z,97.30
2018-06-24T18:54:32.903Z,97.50
2018-06-24T18:57:03.254Z,97.80
2018-06-24T18:59:32.598Z,97.70
2018-06-24T19:02:03.059Z,97.60
2018-06-24T19:04:32.506Z,97.50
2018-06-24T19:07:01.982Z,97.30
2018-06-24T19:09:31.312Z,97.90
2018-06-24T19:12:00.656Z,97.80
2018-06-24T19:14:30.673Z,98.10
2018-06-24T19:17:00.122Z,98.20
2018-06-24T19:19:30.141Z,98.10
2018-06-24T19:21:59.493Z,98.60
2018-06-24T19:24:28.837Z,98.70
2018-06-24T19:26:58.395Z,98.80
2018-06-24T19:29:27.908Z,98.60
2018-06-24T19:31:57.501Z,98.60
2018-06-24T19:34:26.792Z,99.00
2018-06-24T19:36:57.079Z,98.70
2018-06-24T19:39:26.463Z,98.90
2018-06-24T19:41:55.813Z,98.60
2018-06-24T19:44:25.301Z,99.00
2018-06-24T19:46:54.668Z,99.00
2018-06-24T19:49:24.042Z,99.30
2018-06-24T19:51:53.429Z,99.30
2018-06-24T19:54:22.705Z,99.40
2018-06-24T19:56:52.084Z,99.40
2018-06-24T19:59:21.826Z,99.40
2018-06-24T20:01:51.149Z,99.90
2018-06-24T20:04:20.601Z,99.60
2018-06-24T20:06:49.970Z,99.50
2018-06-24T20:09:19.474Z,99.50
2018-06-24T20:11:48.779Z,99.60
2018-06-24T20:14:18.049Z,99.50
2018-06-24T20:16:47.410Z,99.40
2018-06-24T20:19:16.879Z,99.70
2018-06-24T20:21:46.290Z,99.60
2018-06-24T20:24:15.540Z,99.70
2018-06-24T20:26:45.000Z,99.50
2018-06-24T20:29:14.287Z,99.80
2018-06-24T20:31:43.665Z,99.90
2018-06-24T20:34:13.471Z,99.90
2018-06-24T20:36:42.803Z,99.90
2018-06-24T20:39:12.205Z,99.90
2018-06-24T20:41:41.850Z,99.90
2018-06-24T20:44:11.079Z,99.90
2018-06-24T20:49:09.270Z,99.90
2018-06-24T20:51:38.674Z,99.90
2018-06-24T20:54:07.979Z,99.90
2018-06-24T20:56:37.343Z,99.90
2018-06-24T20:59:06.622Z,99.90
2018-06-24T21:01:36.472Z,99.90
2018-06-24T21:04:06.049Z,99.90
2018-06-24T21:06:35.373Z,99.90
2018-06-24T21:09:07.529Z,99.90
2018-06-24T21:11:36.830Z,99.90
2018-06-24T21:14:06.173Z,99.90
2018-06-24T21:16:35.758Z,99.90
2018-06-24T21:19:05.134Z,99.90
2018-06-24T21:21:34.737Z,99.90
2018-06-24T21:24:04.150Z,99.90
2018-06-24T21:26:33.476Z,99.90
2018-06-24T21:29:02.805Z,99.90
2018-06-24T21:31:32.060Z,99.90
2018-06-24T21:34:01.341Z,99.90
2018-06-24T21:36:30.668Z,99.90
2018-06-24T21:39:00.523Z,99.90
2018-06-24T21:41:29.802Z,99.90
2018-06-24T21:43:59.096Z,99.90
2018-06-24T21:48:57.290Z,99.90
2018-06-24T21:51:26.534Z,99.90
2018-06-24T21:53:55.866Z,99.90
2018-06-24T21:56:25.251Z,99.90
2018-06-24T21:58:54.889Z,99.90
2018-06-24T22:01:24.170Z,99.90
2018-06-24T22:06:23.101Z,99.90
2018-06-24T22:08:52.383Z,99.90
2018-06-24T22:11:21.980Z,99.90
2018-06-24T22:13:51.305Z,99.90
2018-06-24T22:16:20.639Z,99.90
2018-06-24T22:18:49.917Z,99.90
2018-06-24T22:21:19.240Z,99.90
2018-06-24T22:23:48.550Z,99.90
2018-06-24T22:26:17.875Z,99.90
2018-06-24T22:28:47.172Z,99.90
2018-06-24T22:31:17.016Z,99.90
2018-06-24T22:33:46.376Z,99.90
2018-06-24T22:36:15.646Z,99.90
2018-06-24T22:38:44.935Z,99.90
2018-06-24T22:41:14.201Z,99.90
2018-06-24T22:43:43.471Z,99.90
2018-06-24T22:46:12.712Z,99.90
2018-06-24T22:48:41.976Z,99.90
2018-06-24T22:51:11.282Z,99.90
2018-06-24T22:53:40.536Z,99.90
2018-06-24T22:56:09.816Z,99.90
2018-06-24T22:58:39.093Z,99.90
2018-06-24T23:01:09.259Z,99.90
2018-06-24T23:03:38.559Z,99.90
2018-06-24T23:06:08.103Z,99.90
2018-06-24T23:08:38.169Z,99.90
2018-06-24T23:11:07.459Z,99.90
2018-06-24T23:13:36.871Z,99.90
2018-06-24T23:16:06.938Z,99.90
2018-06-24T23:18:36.278Z,99.90
2018-06-24T23:21:05.698Z,99.90
2018-06-24T23:23:34.973Z,99.90
2018-06-24T23:26:04.222Z,99.90
2018-06-24T23:28:33.641Z,99.90
2018-06-24T23:31:04.258Z,99.90
2018-06-24T23:33:33.658Z,99.90
2018-06-24T23:36:02.967Z,99.90
2018-06-24T23:38:32.353Z,99.90
2018-06-24T23:41:01.633Z,99.90
2018-06-24T23:43:30.910Z,99.90
2018-06-24T23:46:00.182Z,99.90
2018-06-24T23:48:29.562Z,99.90
2018-06-24T23:50:58.817Z,99.90
2018-06-24T23:53:28.051Z,99.90
2018-06-24T23:55:57.639Z,99.90
2018-06-24T23:58:26.913Z,99.90
